Time;durP1;ratioP1;P1;durP2;ratioP2;P2;SDS_P1;SDS_P2;PMS_P1;PMS_P2;Temp;Humidity;BMP_temperature;BMP_pressure;BME280_temperature;BME280_humidity;BME280_pressure;Samples;Min_cycle;Max_cycle;Signal;HPM_P1;HPM_P2
2022/11/30 00:02:35;;;;;;;7.03;4.05;;;;;;;-147.53;100.00;57128.34;10295470;28;20043;-88
2022/11/30 00:07:37;;;;;;;6.35;2.90;;;;;;;-147.53;100.00;57128.34;10299345;28;20085;-89
2022/11/30 00:12:43;;;;;;;5.47;2.90;;;;;;;-147.53;100.00;57128.34;10288316;28;20085;-90
2022/11/30 00:17:45;;;;;;;4.18;3.17;;;;;;;-147.53;100.00;57128.34;10288031;28;20043;-89
2022/11/30 00:22:47;;;;;;;6.05;2.47;;;;;;;-147.53;100.00;57128.34;10279370;28;20613;-88
2022/11/30 00:27:48;;;;;;;7.10;2.92;;;;;;;-147.53;100.00;57128.34;10299340;28;20042;-89
2022/11/30 00:32:55;;;;;;;4.75;2.70;;;;;;;-147.53;100.00;57128.34;10285893;28;20043;-88
2022/11/30 00:37:57;;;;;;;6.47;3.85;;;;;;;-147.53;100.00;57128.34;10286651;28;20109;-88
2022/11/30 00:42:58;;;;;;;4.50;2.28;;;;;;;-147.53;100.00;57128.34;10310722;28;20038;-89
2022/11/30 00:48:00;;;;;;;4.75;2.97;;;;;;;-147.53;100.00;57128.34;10285470;28;20074;-89
2022/11/30 00:53:01;;;;;;;6.10;3.40;;;;;;;-147.53;100.00;57128.34;10268658;28;20042;-88
2022/11/30 00:58:05;;;;;;;6.35;2.97;;;;;;;-147.53;100.00;57128.34;10286033;28;20636;-87
2022/11/30 01:03:07;;;;;;;8.15;3.55;;;;;;;-147.53;100.00;57128.34;10293583;28;20063;-88
2022/11/30 01:08:10;;;;;;;4.18;1.90;;;;;;;-147.53;100.00;57128.34;10284821;28;20504;-87
2022/11/30 01:13:12;;;;;;;4.93;2.53;;;;;;;-147.53;100.00;57128.34;10285642;28;20042;-88
2022/11/30 01:18:13;;;;;;;5.55;3.08;;;;;;;-147.53;100.00;57128.34;10260856;28;20038;-88
2022/11/30 01:23:15;;;;;;;5.68;3.33;;;;;;;-147.53;100.00;57128.34;10285324;28;20575;-88
2022/11/30 01:28:16;;;;;;;5.68;2.90;;;;;;;-147.53;100.00;57128.34;10269155;28;20393;-88
2022/11/30 01:33:19;;;;;;;5.60;3.53;;;;;;;-147.53;100.00;57128.34;10277166;28;20051;-88
2022/11/30 01:38:20;;;;;;;4.03;2.58;;;;;;;-147.53;100.00;57128.34;10291408;28;20038;-88
2022/11/30 01:43:40;;;;;;;4.70;2.97;;;;;;;-147.53;100.00;57128.34;10289708;28;20042;-89
2022/11/30 01:48:41;;;;;;;4.78;2.72;;;;;;;-147.53;100.00;57128.34;10316663;28;20557;-88
2022/11/30 01:53:43;;;;;;;2.05;1.75;;;;;;;-147.53;100.00;57128.34;10292443;28;20067;-87
2022/11/30 01:58:45;;;;;;;4.57;2.63;;;;;;;-147.53;100.00;57128.34;10282744;28;20046;-88
2022/11/30 02:03:55;;;;;;;4.63;2.65;;;;;;;-147.53;100.00;57128.34;10282763;28;20042;-87
2022/11/30 02:08:56;;;;;;;5.15;2.25;;;;;;;-147.53;100.00;57128.34;10283616;28;20038;-89
2022/11/30 02:14:01;;;;;;;3.65;2.53;;;;;;;-147.53;100.00;57128.34;10284123;28;20062;-87
2022/11/30 02:19:04;;;;;;;3.05;2.30;;;;;;;-147.53;100.00;57128.34;10281761;28;20085;-87
2022/11/30 02:24:19;;;;;;;2.55;1.98;;;;;;;-147.53;100.00;57128.34;10291386;28;20101;-88
2022/11/30 02:29:39;;;;;;;5.10;2.35;;;;;;;-147.53;100.00;57128.34;10283139;28;20523;-88
2022/11/30 02:34:42;;;;;;;6.30;3.93;;;;;;;-147.53;100.00;57128.34;10274515;28;20054;-88
2022/11/30 02:39:43;;;;;;;4.72;3.15;;;;;;;-147.53;100.00;57128.34;10282411;28;20046;-88
2022/11/30 02:44:48;;;;;;;5.30;2.58;;;;;;;-147.53;100.00;57128.34;10282013;28;20042;-88
2022/11/30 02:50:18;;;;;;;5.18;2.88;;;;;;;-147.53;100.00;57128.34;10249834;28;20043;-88
2022/11/30 02:55:19;;;;;;;3.83;2.40;;;;;;;-147.53;100.00;57128.34;10289974;28;20105;-88
2022/11/30 03:00:21;;;;;;;4.13;2.65;;;;;;;-147.53;100.00;57128.34;10281372;28;20885;-88
2022/11/30 03:05:23;;;;;;;4.18;2.80;;;;;;;-147.53;100.00;57128.34;10280567;28;20459;-88
2022/11/30 03:10:24;;;;;;;8.25;3.03;;;;;;;-147.53;100.00;57128.34;10281551;28;20035;-88
2022/11/30 03:15:26;;;;;;;6.47;2.67;;;;;;;-147.53;100.00;57128.34;10279620;28;20109;-88
2022/11/30 03:20:27;;;;;;;2.08;1.35;;;;;;;-147.53;100.00;57128.34;10280959;28;20050;-88
2022/11/30 03:25:29;;;;;;;7.30;3.90;;;;;;;-147.53;100.00;57128.34;10280242;28;20043;-89
2022/11/30 03:30:30;;;;;;;4.32;2.22;;;;;;;-147.53;100.00;57128.34;10283956;28;20050;-88
2022/11/30 03:35:32;;;;;;;8.30;4.95;;;;;;;-147.53;100.00;57128.34;10280527;28;20039;-88
2022/11/30 03:40:36;;;;;;;6.50;3.85;;;;;;;-147.53;100.00;57128.34;10264003;28;20465;-88
2022/11/30 03:45:37;;;;;;;4.63;3.40;;;;;;;-147.53;100.00;57128.34;10280538;28;20074;-89
2022/11/30 03:50:40;;;;;;;5.40;2.67;;;;;;;-147.53;100.00;57128.34;10263824;28;20098;-89
2022/11/30 03:55:41;;;;;;;3.88;2.20;;;;;;;-147.53;100.00;57128.34;10263257;28;20501;-89
2022/11/30 04:00:43;;;;;;;6.20;2.85;;;;;;;-147.53;100.00;57128.34;10263619;28;20578;-88
2022/11/30 04:05:46;;;;;;;5.03;3.03;;;;;;;-147.53;100.00;57128.34;10262725;28;20043;-88
2022/11/30 04:10:50;;;;;;;4.50;1.98;;;;;;;-147.53;100.00;57128.34;10263786;28;20054;-89
2022/11/30 04:15:53;;;;;;;5.82;2.40;;;;;;;-147.53;100.00;57128.34;10279499;28;20047;-88
2022/11/30 04:20:57;;;;;;;3.33;1.85;;;;;;;-147.53;100.00;57128.34;10262419;28;20500;-88
2022/11/30 04:25:59;;;;;;;4.97;2.38;;;;;;;-147.53;100.00;57128.34;10295509;28;20070;-88
2022/11/30 04:31:01;;;;;;;5.15;2.92;;;;;;;-147.53;100.00;57128.34;10281559;28;20101;-87
2022/11/30 04:36:04;;;;;;;4.40;2.65;;;;;;;-147.53;100.00;57128.34;10275600;28;20270;-88
2022/11/30 04:41:07;;;;;;;5.07;2.95;;;;;;;-147.53;100.00;57128.34;10283260;28;20043;-86
2022/11/30 04:46:09;;;;;;;4.80;2.53;;;;;;;-147.53;100.00;57128.34;10288264;28;20050;-87
2022/11/30 04:51:11;;;;;;;6.55;3.38;;;;;;;-147.53;100.00;57128.34;10290301;28;20042;-87
2022/11/30 04:56:12;;;;;;;9.95;3.30;;;;;;;-147.53;100.00;57128.34;10288187;28;20092;-86
2022/11/30 05:01:14;;;;;;;4.30;2.40;;;;;;;-147.53;100.00;57128.34;10276844;28;20043;-88
2022/11/30 05:06:16;;;;;;;5.72;2.92;;;;;;;-147.53;100.00;57128.34;10293575;28;20109;-88
2022/11/30 05:11:17;;;;;;;3.47;2.35;;;;;;;-147.53;100.00;57128.34;10291398;28;20470;-87
2022/11/30 05:16:19;;;;;;;5.55;2.72;;;;;;;-147.53;100.00;57128.34;10295216;28;20051;-86
2022/11/30 05:21:20;;;;;;;5.60;2.85;;;;;;;-147.53;100.00;57128.34;10279337;28;20126;-88
2022/11/30 05:26:22;;;;;;;5.47;3.15;;;;;;;-147.53;100.00;57128.34;10280720;28;20121;-88
2022/11/30 05:31:23;;;;;;;9.60;3.22;;;;;;;-147.53;100.00;57128.34;10294219;28;20047;-86
2022/11/30 05:36:25;;;;;;;4.10;2.80;;;;;;;-147.53;100.00;57128.34;10267608;28;20054;-87
2022/11/30 05:41:26;;;;;;;5.95;3.20;;;;;;;-147.53;100.00;57128.34;10285572;28;20046;-88
2022/11/30 05:46:28;;;;;;;6.32;3.97;;;;;;;-147.53;100.00;57128.34;10288124;28;20046;-86
2022/11/30 05:51:29;;;;;;;4.97;2.95;;;;;;;-147.53;100.00;57128.34;10270111;28;20054;-86
2022/11/30 05:56:31;;;;;;;4.88;2.58;;;;;;;-147.53;100.00;57128.34;10287202;28;20039;-87
2022/11/30 06:01:33;;;;;;;6.38;3.55;;;;;;;-147.53;100.00;57128.34;10288364;28;20050;-87
2022/11/30 06:06:34;;;;;;;1.45;1.25;;;;;;;-147.53;100.00;57128.34;10271860;28;20043;-88
2022/11/30 06:11:36;;;;;;;3.17;2.10;;;;;;;-147.53;100.00;57128.34;10287513;28;20050;-87
2022/11/30 06:16:38;;;;;;;4.32;2.72;;;;;;;-147.53;100.00;57128.34;10285417;28;20054;-87
2022/11/30 06:21:41;;;;;;;4.22;2.38;;;;;;;-147.53;100.00;57128.34;10284458;28;20050;-88
2022/11/30 06:26:42;;;;;;;5.18;3.60;;;;;;;-147.53;100.00;57128.34;10276002;28;20524;-86
2022/11/30 06:31:44;;;;;;;3.45;2.55;;;;;;;-147.53;100.00;57128.34;10295345;28;20090;-87
2022/11/30 06:36:46;;;;;;;4.25;2.10;;;;;;;-147.53;100.00;57128.34;10283407;28;20041;-87
2022/11/30 06:41:47;;;;;;;3.58;1.98;;;;;;;-147.53;100.00;57128.34;10282459;28;20051;-87
2022/11/30 06:46:54;;;;;;;4.45;2.90;;;;;;;-147.53;100.00;57128.34;10267438;28;20468;-87
2022/11/30 06:51:56;;;;;;;3.85;2.90;;;;;;;-147.53;100.00;57128.34;10282180;28;20420;-85
2022/11/30 06:56:57;;;;;;;5.72;3.22;;;;;;;-147.53;100.00;57128.34;10282143;28;20051;-85
2022/11/30 07:01:59;;;;;;;5.72;3.08;;;;;;;-147.53;100.00;57128.34;10298588;28;20050;-86
2022/11/30 07:07:08;;;;;;;8.27;3.17;;;;;;;-147.53;100.00;57128.34;10278923;28;20054;-85
2022/11/30 07:12:10;;;;;;;6.97;3.53;;;;;;;-147.53;100.00;57128.34;10282416;28;20047;-84
2022/11/30 07:17:11;;;;;;;7.85;4.43;;;;;;;-147.53;100.00;57128.34;10271403;28;20038;-85
2022/11/30 07:22:13;;;;;;;6.75;3.58;;;;;;;-147.53;100.00;57128.34;10277989;28;20062;-84
2022/11/30 07:27:15;;;;;;;7.47;4.15;;;;;;;-147.53;100.00;57128.34;10305867;28;20404;-85
2022/11/30 07:32:17;;;;;;;7.60;4.25;;;;;;;-147.53;100.00;57128.34;10260574;28;20109;-85
2022/11/30 07:37:18;;;;;;;5.75;3.88;;;;;;;-147.53;100.00;57128.34;10262878;28;20126;-86
2022/11/30 07:42:21;;;;;;;5.07;3.17;;;;;;;-147.53;100.00;57128.34;10279960;28;20047;-86
2022/11/30 07:47:23;;;;;;;5.80;3.42;;;;;;;-147.53;100.00;57128.34;10288768;28;20544;-84
2022/11/30 07:52:24;;;;;;;4.10;2.50;;;;;;;-147.53;100.00;57128.34;10270773;28;20057;-85
2022/11/30 07:57:26;;;;;;;7.10;3.85;;;;;;;-147.53;100.00;57128.34;10279351;28;20050;-87
2022/11/30 08:02:28;;;;;;;5.10;3.13;;;;;;;-147.53;100.00;57128.34;10280643;28;20047;-87
2022/11/30 08:07:29;;;;;;;10.77;3.30;;;;;;;-147.53;100.00;57128.34;10295259;28;20050;-88
2022/11/30 08:12:31;;;;;;;5.50;3.80;;;;;;;-147.53;100.00;57128.34;10263460;28;20129;-88
2022/11/30 08:17:32;;;;;;;3.30;2.00;;;;;;;-147.53;100.00;57128.34;10281933;28;20528;-90
2022/11/30 08:22:34;;;;;;;5.13;3.17;;;;;;;-147.53;100.00;57128.34;10262408;28;20125;-89
2022/11/30 08:27:36;;;;;;;4.00;3.05;;;;;;;-147.53;100.00;57128.34;10261007;28;20042;-89
2022/11/30 08:32:38;;;;;;;6.22;3.85;;;;;;;-147.53;100.00;57128.34;10285758;28;20070;-90
2022/11/30 08:37:39;;;;;;;4.80;3.08;;;;;;;-147.53;100.00;57128.34;10292559;28;20414;-92
2022/11/30 08:42:41;;;;;;;4.65;2.10;;;;;;;-147.53;100.00;57128.34;10275356;28;20054;-91
2022/11/30 08:47:42;;;;;;;5.68;2.97;;;;;;;-147.53;100.00;57128.34;10282666;28;20055;-90
2022/11/30 08:52:44;;;;;;;5.10;2.90;;;;;;;-147.53;100.00;57128.34;10275278;28;20057;-90
2022/11/30 08:57:45;;;;;;;4.15;2.38;;;;;;;-147.53;100.00;57128.34;10281391;28;20050;-91
2022/11/30 09:02:47;;;;;;;9.60;4.57;;;;;;;-147.53;100.00;57128.34;10294072;28;20035;-90
2022/11/30 09:07:48;;;;;;;3.97;2.90;;;;;;;-147.53;100.00;57128.34;10288484;28;20523;-91
2022/11/30 09:12:50;;;;;;;4.38;2.70;;;;;;;-147.53;100.00;57128.34;10308108;28;20062;-90
2022/11/30 09:17:51;;;;;;;7.50;4.15;;;;;;;-147.53;100.00;57128.34;10327176;28;20267;-91
2022/11/30 09:22:53;;;;;;;6.50;3.05;;;;;;;-147.53;100.00;57128.34;10324970;28;20058;-90
2022/11/30 09:27:54;;;;;;;9.43;4.85;;;;;;;-147.53;100.00;57128.34;10329977;28;20120;-90
2022/11/30 09:32:59;;;;;;;5.70;3.83;;;;;;;-147.53;100.00;57128.34;10316962;28;20065;-91
2022/11/30 09:38:00;;;;;;;7.43;3.45;;;;;;;-147.53;100.00;57128.34;10324236;28;20053;-88
2022/11/30 09:43:26;;;;;;;7.85;4.72;;;;;;;-147.53;100.00;57128.34;10329836;28;20065;-92
2022/11/30 09:48:37;;;;;;;15.23;4.60;;;;;;;-147.53;100.00;57128.34;10282606;28;20062;-90
2022/11/30 09:53:45;;;;;;;7.18;2.88;;;;;;;-147.53;100.00;57128.34;10283434;28;20050;-90
2022/11/30 09:58:55;;;;;;;10.38;4.95;;;;;;;-147.53;100.00;57128.34;10289384;28;20615;-89
2022/11/30 10:03:57;;;;;;;7.95;5.13;;;;;;;-147.53;100.00;57128.34;10295368;28;20043;-88
2022/11/30 10:09:15;;;;;;;9.35;4.50;;;;;;;-147.53;100.00;57128.34;10291909;28;20039;-91
2022/11/30 10:14:47;;;;;;;8.63;5.40;;;;;;;-147.53;100.00;57128.34;10270908;28;20045;-90
2022/11/30 10:20:15;;;;;;;7.07;3.90;;;;;;;-147.53;100.00;57128.34;10285700;28;20154;-90
2022/11/30 10:25:23;;;;;;;7.65;4.05;;;;;;;-147.53;100.00;57128.34;10281649;28;20074;-89
2022/11/30 10:30:34;;;;;;;8.10;5.05;;;;;;;-147.53;100.00;57128.34;10287263;28;20042;-89
2022/11/30 10:36:08;;;;;;;9.73;4.38;;;;;;;-147.53;100.00;57128.34;10265990;28;20066;-91
2022/11/30 10:41:21;;;;;;;5.00;3.45;;;;;;;-147.53;100.00;57128.34;10272115;28;20835;-89
2022/11/30 10:46:29;;;;;;;7.07;4.15;;;;;;;-147.53;100.00;57128.34;10268554;28;20049;-88
2022/11/30 10:51:35;;;;;;;9.18;4.75;;;;;;;-147.53;100.00;57128.34;10277886;28;20377;-89
2022/11/30 10:56:36;;;;;;;9.05;5.60;;;;;;;-147.53;100.00;57128.34;10273357;28;20039;-90
2022/11/30 11:01:40;;;;;;;9.23;5.35;;;;;;;-147.53;100.00;57128.34;10279271;28;20453;-89
2022/11/30 11:06:45;;;;;;;6.00;3.53;;;;;;;-147.53;100.00;57128.34;10253539;28;20133;-91
2022/11/30 11:11:53;;;;;;;12.00;5.25;;;;;;;-147.53;100.00;57128.34;10281772;28;20062;-89
2022/11/30 11:17:20;;;;;;;9.75;5.55;;;;;;;-147.53;100.00;57128.34;10296658;28;20057;-91
2022/11/30 11:22:28;;;;;;;6.55;4.53;;;;;;;-147.53;100.00;57128.34;10279982;28;20039;-89
2022/11/30 11:27:32;;;;;;;6.97;3.70;;;;;;;-147.53;100.00;57128.34;10287262;28;20078;-90
2022/11/30 11:32:34;;;;;;;8.45;3.63;;;;;;;-147.53;100.00;57128.34;10270174;28;20492;-89
2022/11/30 11:37:40;;;;;;;10.88;4.90;;;;;;;-147.53;100.00;57128.34;10261986;28;20049;-89
2022/11/30 11:42:46;;;;;;;8.45;5.07;;;;;;;-147.53;100.00;57128.34;10272255;28;20493;-88
2022/11/30 11:48:07;;;;;;;7.07;3.60;;;;;;;-147.53;100.00;57128.34;10263821;28;20035;-89
2022/11/30 11:53:41;;;;;;;9.73;4.93;;;;;;;-147.53;100.00;57128.34;10265689;28;20749;-89
2022/11/30 11:58:57;;;;;;;11.43;5.38;;;;;;;-147.53;100.00;57128.34;10295440;28;20188;-89
2022/11/30 12:04:11;;;;;;;6.00;4.25;;;;;;;-147.53;100.00;57128.34;10297670;28;20535;-88
2022/11/30 12:09:17;;;;;;;7.20;4.85;;;;;;;-147.53;100.00;57128.34;10255456;28;20120;-85
2022/11/30 12:14:18;;;;;;;11.10;5.20;;;;;;;-147.53;100.00;57128.34;10284365;28;20043;-85
2022/11/30 12:19:41;;;;;;;11.05;4.97;;;;;;;-147.53;100.00;57128.34;10289258;28;20049;-85
2022/11/30 12:25:07;;;;;;;10.40;4.75;;;;;;;-147.53;100.00;57128.34;10282909;28;20038;-85
2022/11/30 12:30:29;;;;;;;7.93;4.38;;;;;;;-147.53;100.00;57128.34;10291230;28;20049;-87
2022/11/30 12:35:53;;;;;;;13.13;5.75;;;;;;;-147.53;100.00;57128.34;10267365;28;20070;-88
2022/11/30 12:40:57;;;;;;;7.20;4.43;;;;;;;-147.53;100.00;57128.34;10254927;28;20066;-88
2022/11/30 12:46:25;;;;;;;11.40;4.72;;;;;;;-147.53;100.00;57128.34;10309814;28;20049;-90
2022/11/30 12:51:32;;;;;;;11.60;6.32;;;;;;;-147.53;100.00;57128.34;10291411;28;20112;-88
2022/11/30 12:56:42;;;;;;;9.45;4.35;;;;;;;-147.53;100.00;57128.34;10300958;28;20039;-88
2022/11/30 13:02:11;;;;;;;13.57;5.38;;;;;;;-147.53;100.00;57128.34;10300248;28;20130;-88
2022/11/30 13:07:19;;;;;;;10.50;5.97;;;;;;;-147.53;100.00;57128.34;10265390;28;20050;-87
2022/11/30 13:12:34;;;;;;;6.93;4.03;;;;;;;-147.53;100.00;57128.34;10283168;28;20476;-88
2022/11/30 13:17:37;;;;;;;12.10;5.45;;;;;;;-147.53;100.00;57128.34;10284579;28;20042;-87
2022/11/30 13:22:59;;;;;;;6.28;3.40;;;;;;;-147.53;100.00;57128.34;10286547;28;20035;-88
2022/11/30 13:28:12;;;;;;;12.23;5.63;;;;;;;-147.53;100.00;57128.34;10284208;28;20046;-88
2022/11/30 13:33:32;;;;;;;12.70;5.88;;;;;;;-147.53;100.00;57128.34;10261156;28;20035;-88
2022/11/30 13:38:34;;;;;;;7.15;4.40;;;;;;;-147.53;100.00;57128.34;10281070;28;20063;-88
2022/11/30 13:43:45;;;;;;;12.30;6.45;;;;;;;-147.53;100.00;57128.34;10270740;28;20061;-89
2022/11/30 13:49:07;;;;;;;8.50;4.82;;;;;;;-147.53;100.00;57128.34;10267783;28;20047;-87
2022/11/30 13:54:27;;;;;;;;;;;;;;;-147.53;100.00;57128.34;10268153;28;20038;-88
2022/11/30 13:59:29;;;;;;;12.38;6.32;;;;;;;-147.53;100.00;57128.34;10267616;28;19992;-87
2022/11/30 14:04:32;;;;;;;6.88;4.03;;;;;;;-147.53;100.00;57128.34;10282955;28;20046;-89
2022/11/30 14:09:39;;;;;;;9.32;4.68;;;;;;;-147.53;100.00;57128.34;10267091;28;20110;-87
2022/11/30 14:14:46;;;;;;;8.68;5.30;;;;;;;-147.53;100.00;57128.34;10283766;28;20051;-87
2022/11/30 14:19:51;;;;;;;11.00;3.85;;;;;;;-147.53;100.00;57128.34;10283595;28;20138;-88
2022/11/30 14:24:53;;;;;;;10.70;5.55;;;;;;;-147.53;100.00;57128.34;10265930;28;20082;-86
2022/11/30 14:30:00;;;;;;;9.50;4.80;;;;;;;-147.53;100.00;57128.34;10265552;28;20043;-88
2022/11/30 14:35:15;;;;;;;5.22;3.00;;;;;;;-147.53;100.00;57128.34;10265552;28;20035;-86
2022/11/30 14:40:20;;;;;;;8.07;4.53;;;;;;;-147.53;100.00;57128.34;10265295;28;20655;-88
2022/11/30 14:45:27;;;;;;;11.07;3.08;;;;;;;-147.53;100.00;57128.34;10258829;28;20053;-87
2022/11/30 14:50:29;;;;;;;10.75;4.43;;;;;;;-147.53;100.00;57128.34;10265319;28;20055;-88
2022/11/30 14:55:51;;;;;;;8.48;6.10;;;;;;;-147.53;100.00;57128.34;10294237;28;20051;-86
2022/11/30 15:00:53;;;;;;;8.82;3.80;;;;;;;-147.53;100.00;57128.34;10302807;28;20054;-87
2022/11/30 15:05:58;;;;;;;4.88;3.95;;;;;;;-147.53;100.00;57128.34;10274367;28;20053;-86
2022/11/30 15:11:09;;;;;;;12.55;6.50;;;;;;;-147.53;100.00;57128.34;10291597;28;20062;-89
2022/11/30 15:16:51;;;;;;;8.32;4.95;;;;;;;-147.53;100.00;57128.34;10294280;28;20057;-90
2022/11/30 15:21:55;;;;;;;9.18;4.95;;;;;;;-147.53;100.00;57128.34;10262693;28;20126;-87
2022/11/30 15:27:13;;;;;;;14.50;5.47;;;;;;;-147.53;100.00;57128.34;10291182;28;20035;-87
2022/11/30 15:32:21;;;;;;;8.32;5.65;;;;;;;-147.53;100.00;57128.34;10307204;28;20035;-88
2022/11/30 15:37:33;;;;;;;9.65;6.00;;;;;;;-147.53;100.00;57128.34;10285694;28;20062;-87
2022/11/30 15:42:40;;;;;;;11.70;4.95;;;;;;;-147.53;100.00;57128.34;10279453;28;20038;-88
2022/11/30 15:47:42;;;;;;;9.73;5.53;;;;;;;-147.53;100.00;57128.34;10284731;28;20456;-88
2022/11/30 15:52:46;;;;;;;16.13;7.05;;;;;;;-147.53;100.00;57128.34;10265409;28;20776;-89
2022/11/30 15:58:01;;;;;;;16.63;6.65;;;;;;;-147.53;100.00;57128.34;10284030;28;20039;-86
2022/11/30 16:03:08;;;;;;;12.57;6.18;;;;;;;-147.53;100.00;57128.34;10266204;28;20489;-86
2022/11/30 16:08:17;;;;;;;14.55;7.90;;;;;;;-147.53;100.00;57128.34;10279686;28;20413;-87
2022/11/30 16:13:20;;;;;;;6.82;3.70;;;;;;;-147.53;100.00;57128.34;10279220;28;20035;-87
2022/11/30 16:18:24;;;;;;;6.28;4.57;;;;;;;-147.53;100.00;57128.34;10272264;28;20039;-86
2022/11/30 16:23:26;;;;;;;7.07;3.85;;;;;;;-147.53;100.00;57128.34;10277110;28;20042;-87
2022/11/30 16:28:28;;;;;;;8.70;5.07;;;;;;;-147.53;100.00;57128.34;10291709;28;20046;-86
2022/11/30 16:33:30;;;;;;;10.93;5.63;;;;;;;-147.53;100.00;57128.34;10274403;28;20509;-86
2022/11/30 16:38:31;;;;;;;13.73;6.38;;;;;;;-147.53;100.00;57128.34;10275335;28;20057;-86
2022/11/30 16:43:33;;;;;;;9.57;4.55;;;;;;;-147.53;100.00;57128.34;10299397;28;20035;-86
2022/11/30 16:48:35;;;;;;;15.32;8.68;;;;;;;-147.53;100.00;57128.34;10281494;28;20105;-87
2022/11/30 16:53:36;;;;;;;9.15;3.97;;;;;;;-147.53;100.00;57128.34;10288678;28;20030;-91
2022/11/30 16:58:44;;;;;;;14.52;7.68;;;;;;;-147.53;100.00;57128.34;10325988;28;20046;-90
2022/11/30 17:03:49;;;;;;;15.25;4.47;;;;;;;-147.53;100.00;57128.34;10271278;28;20111;-87
2022/11/30 17:08:51;;;;;;;7.80;4.63;;;;;;;-147.53;100.00;57128.34;10293415;28;20054;-87
2022/11/30 17:13:53;;;;;;;13.30;7.35;;;;;;;-147.53;100.00;57128.34;10297243;28;20042;-87
2022/11/30 17:18:54;;;;;;;12.77;6.93;;;;;;;-147.53;100.00;57128.34;10283327;28;20042;-86
2022/11/30 17:23:56;;;;;;;13.43;4.93;;;;;;;-147.53;100.00;57128.34;10300354;28;20078;-88
2022/11/30 17:28:58;;;;;;;12.50;6.63;;;;;;;-147.53;100.00;57128.34;10302927;28;20057;-87
2022/11/30 17:34:00;;;;;;;12.15;6.22;;;;;;;-147.53;100.00;57128.34;10280782;28;20515;-88
2022/11/30 17:39:06;;;;;;;11.50;5.35;;;;;;;-147.53;100.00;57128.34;10298827;28;20093;-87
2022/11/30 17:44:09;;;;;;;14.13;6.20;;;;;;;-147.53;100.00;57128.34;10298699;28;20045;-87
2022/11/30 17:49:10;;;;;;;14.88;6.30;;;;;;;-147.53;100.00;57128.34;10310079;28;20055;-89
2022/11/30 17:54:12;;;;;;;12.27;6.70;;;;;;;-147.53;100.00;57128.34;10304242;28;20042;-87
2022/11/30 17:59:14;;;;;;;15.52;7.22;;;;;;;-147.53;100.00;57128.34;10296257;28;20034;-87
2022/11/30 18:04:15;;;;;;;13.75;7.13;;;;;;;-147.53;100.00;57128.34;10276947;28;20544;-88
2022/11/30 18:09:17;;;;;;;9.38;4.97;;;;;;;-147.53;100.00;57128.34;10273788;28;20677;-87
2022/11/30 18:14:19;;;;;;;14.10;6.65;;;;;;;-147.53;100.00;57128.34;10280030;28;20166;-88
2022/11/30 18:19:20;;;;;;;11.13;6.40;;;;;;;-147.53;100.00;57128.34;10297539;28;20055;-88
2022/11/30 18:24:23;;;;;;;11.80;5.65;;;;;;;-147.53;100.00;57128.34;10303935;28;20038;-86
2022/11/30 18:29:29;;;;;;;14.75;6.38;;;;;;;-147.53;100.00;57128.34;10281145;28;20519;-88
2022/11/30 18:34:31;;;;;;;9.00;5.40;;;;;;;-147.53;100.00;57128.34;10279286;28;20055;-87
2022/11/30 18:39:32;;;;;;;11.77;5.82;;;;;;;-147.53;100.00;57128.34;10297847;28;20413;-88
2022/11/30 18:44:34;;;;;;;11.48;5.35;;;;;;;-147.53;100.00;57128.34;10270846;28;20049;-88
2022/11/30 18:49:36;;;;;;;13.15;7.50;;;;;;;-147.53;100.00;57128.34;10307651;28;20047;-87
2022/11/30 18:54:37;;;;;;;16.02;5.82;;;;;;;-147.53;100.00;57128.34;10284423;28;20070;-86
2022/11/30 18:59:40;;;;;;;11.55;5.57;;;;;;;-147.53;100.00;57128.34;10263599;28;20153;-87
2022/11/30 19:04:41;;;;;;;14.52;6.72;;;;;;;-147.53;100.00;57128.34;10307811;28;20124;-89
2022/11/30 19:09:43;;;;;;;15.85;8.00;;;;;;;-147.53;100.00;57128.34;10305127;28;20039;-89
2022/11/30 19:14:44;;;;;;;12.25;7.15;;;;;;;-147.53;100.00;57128.34;10309169;28;20035;-87
2022/11/30 19:19:47;;;;;;;10.15;5.75;;;;;;;-147.53;100.00;57128.34;10290318;28;20039;-86
2022/11/30 19:24:48;;;;;;;10.77;6.85;;;;;;;-147.53;100.00;57128.34;10298435;28;20059;-88
2022/11/30 19:29:50;;;;;;;19.05;6.32;;;;;;;-147.53;100.00;57128.34;10305925;28;20113;-89
2022/11/30 19:34:52;;;;;;;10.45;5.30;;;;;;;-147.53;100.00;57128.34;10311511;28;20497;-89
2022/11/30 19:39:54;;;;;;;19.83;9.18;;;;;;;-147.53;100.00;57128.34;10304558;28;20053;-88
2022/11/30 19:44:55;;;;;;;13.93;6.85;;;;;;;-147.53;100.00;57128.34;10281343;28;20042;-88
2022/11/30 19:49:57;;;;;;;14.07;7.35;;;;;;;-147.53;100.00;57128.34;10293501;28;20034;-88
2022/11/30 19:54:58;;;;;;;8.02;4.80;;;;;;;-147.53;100.00;57128.34;10296530;28;20043;-89
2022/11/30 20:00:04;;;;;;;10.20;5.95;;;;;;;-147.53;100.00;57128.34;10320580;28;20066;-89
2022/11/30 20:05:13;;;;;;;8.93;4.18;;;;;;;-147.53;100.00;57128.34;10310202;28;20105;-88
2022/11/30 20:10:15;;;;;;;11.30;5.60;;;;;;;-147.53;100.00;57128.34;10287933;28;20420;-88
2022/11/30 20:15:17;;;;;;;20.10;7.75;;;;;;;-147.53;100.00;57128.34;10291771;28;20046;-86
2022/11/30 20:20:18;;;;;;;11.07;5.95;;;;;;;-147.53;100.00;57128.34;10296327;28;20034;-87
2022/11/30 20:25:20;;;;;;;6.85;4.20;;;;;;;-147.53;100.00;57128.34;10306654;28;20035;-89
2022/11/30 20:30:21;;;;;;;18.33;6.65;;;;;;;-147.53;100.00;57128.34;10291065;28;20394;-88
2022/11/30 20:35:23;;;;;;;10.55;5.35;;;;;;;-147.53;100.00;57128.34;10306901;28;20055;-92
2022/11/30 20:40:25;;;;;;;19.98;7.72;;;;;;;-147.53;100.00;57128.34;10290332;28;20127;-87
2022/11/30 20:45:26;;;;;;;12.15;5.70;;;;;;;-147.53;100.00;57128.34;10310588;28;20097;-88
2022/11/30 20:50:28;;;;;;;11.55;6.18;;;;;;;-147.53;100.00;57128.34;10315195;28;20066;-87
2022/11/30 20:55:29;;;;;;;15.38;6.28;;;;;;;-147.53;100.00;57128.34;10308587;28;20046;-87
2022/11/30 21:00:31;;;;;;;11.20;5.65;;;;;;;-147.53;100.00;57128.34;10313286;28;20050;-88
2022/11/30 21:05:32;;;;;;;11.45;5.55;;;;;;;-147.53;100.00;57128.34;10336533;28;20042;-89
2022/11/30 21:10:39;;;;;;;8.85;4.45;;;;;;;-147.53;100.00;57128.34;10316112;28;20500;-87
2022/11/30 21:15:40;;;;;;;11.30;6.13;;;;;;;-147.53;100.00;57128.34;10320851;28;20368;-87
2022/11/30 21:20:42;;;;;;;9.45;4.43;;;;;;;-147.53;100.00;57128.34;10300853;28;20090;-85
2022/11/30 21:25:44;;;;;;;12.32;5.07;;;;;;;-147.53;100.00;57128.34;10298564;28;20483;-86
2022/11/30 21:30:46;;;;;;;8.55;4.25;;;;;;;-147.53;100.00;57128.34;10302771;28;20102;-86
2022/11/30 21:35:47;;;;;;;8.35;4.82;;;;;;;-147.53;100.00;57128.34;10283735;28;20051;-86
2022/11/30 21:40:57;;;;;;;15.85;6.15;;;;;;;-147.53;100.00;57128.34;10284963;28;20051;-86
2022/11/30 21:46:00;;;;;;;12.47;7.00;;;;;;;-147.53;100.00;57128.34;10266671;28;20042;-85
2022/11/30 21:51:06;;;;;;;9.40;3.60;;;;;;;-147.53;100.00;57128.34;10277241;28;20501;-86
2022/11/30 21:56:12;;;;;;;9.63;4.88;;;;;;;-147.53;100.00;57128.34;10291556;28;20043;-87
2022/11/30 22:01:24;;;;;;;12.63;5.75;;;;;;;-147.53;100.00;57128.34;10284354;28;20085;-86
2022/11/30 22:06:27;;;;;;;11.20;5.13;;;;;;;-147.53;100.00;57128.34;10284091;28;20613;-86
2022/11/30 22:11:29;;;;;;;15.75;7.03;;;;;;;-147.53;100.00;57128.34;10266903;28;20062;-85
2022/11/30 22:16:31;;;;;;;8.32;5.35;;;;;;;-147.53;100.00;57128.34;10291717;28;20105;-86
2022/11/30 22:21:37;;;;;;;8.77;4.72;;;;;;;-147.53;100.00;57128.34;10276873;28;20049;-88
2022/11/30 22:26:43;;;;;;;7.78;4.93;;;;;;;-147.53;100.00;57128.34;10300016;28;20066;-86
2022/11/30 22:31:46;;;;;;;6.82;4.72;;;;;;;-147.53;100.00;57128.34;10288772;28;20093;-86
2022/11/30 22:36:48;;;;;;;8.02;4.35;;;;;;;-147.53;100.00;57128.34;10281976;28;20046;-85
2022/11/30 22:41:50;;;;;;;11.63;6.40;;;;;;;-147.53;100.00;57128.34;10294614;28;20069;-87
2022/11/30 22:46:58;;;;;;;9.27;4.82;;;;;;;-147.53;100.00;57128.34;10322355;28;20035;-86